Time;durP1;ratioP1;P1;durP2;ratioP2;P2;SDS_P1;SDS_P2;PMS_P1;PMS_P2;Temp;Humidity;BMP_temperature;BMP_pressure;BME280_temperature;BME280_humidity;BME280_pressure;Samples;Min_cycle;Max_cycle;Signal;HPM_P1;HPM_P2
2021/12/03 00:00:25;;;;;;;7.57;2.40;;;0.10;99.90;;;;;;5115023;28;20047;-78
2021/12/03 00:02:50;;;;;;;11.23;2.22;;;0.10;99.90;;;;;;5126166;27;20102;-78
2021/12/03 00:05:16;;;;;;;7.80;2.00;;;0.70;99.90;;;;;;5094348;28;20052;-78
2021/12/03 00:07:42;;;;;;;3.75;1.80;;;0.10;99.90;;;;;;5094118;28;20084;-78
2021/12/03 00:10:11;;;;;;;11.23;1.67;;;0.10;99.90;;;;;;5105447;28;20094;-78
2021/12/03 00:12:37;;;;;;;12.02;3.90;;;0.20;99.90;;;;;;5115766;28;20043;-78
2021/12/03 00:15:05;;;;;;;6.85;1.95;;;0.20;99.90;;;;;;5115749;28;20044;-78
2021/12/03 00:17:31;;;;;;;9.35;2.42;;;0.20;99.90;;;;;;5113624;28;20517;-78
2021/12/03 00:19:57;;;;;;;7.47;1.70;;;1.30;99.90;;;;;;5115814;28;20138;-78
2021/12/03 00:22:23;;;;;;;27.25;3.03;;;0.20;99.90;;;;;;5115416;28;20131;-78
2021/12/03 00:24:49;;;;;;;9.63;1.85;;;0.20;99.90;;;;;;5114420;28;20047;-78
2021/12/03 00:27:15;;;;;;;9.85;1.85;;;0.30;99.90;;;;;;5114245;28;20050;-78
2021/12/03 00:29:41;;;;;;;5.70;1.55;;;0.30;99.90;;;;;;5113103;28;20043;-78
2021/12/03 00:32:07;;;;;;;6.70;1.60;;;0.80;99.90;;;;;;5113938;28;20050;-78
2021/12/03 00:34:33;;;;;;;11.88;1.88;;;0.30;99.90;;;;;;5131035;27;20051;-78
2021/12/03 00:36:58;;;;;;;5.60;1.65;;;1.10;99.90;;;;;;5113948;28;20040;-78
2021/12/03 00:39:24;;;;;;;6.35;1.83;;;1.00;99.90;;;;;;5114841;28;20047;-78
2021/12/03 00:41:57;;;;;;;8.30;2.58;;;0.40;99.90;;;;;;5113905;28;20050;-78
2021/12/03 00:44:24;;;;;;;6.53;1.48;;;0.50;99.90;;;;;;5114311;28;20543;-78
2021/12/03 00:46:50;;;;;;;11.90;1.55;;;1.40;99.90;;;;;;5115335;28;20402;-78
2021/12/03 00:49:16;;;;;;;7.28;1.30;;;0.50;99.90;;;;;;5114062;28;20051;-78
2021/12/03 00:51:42;;;;;;;9.77;1.30;;;1.40;99.90;;;;;;5114203;28;20549;-77
2021/12/03 00:54:08;;;;;;;6.50;1.40;;;0.70;99.90;;;;;;5113640;28;20134;-78
2021/12/03 00:56:34;;;;;;;12.57;1.38;;;0.60;99.90;;;;;;5115093;28;20039;-78
2021/12/03 00:59:00;;;;;;;7.07;1.20;;;0.60;99.90;;;;;;5114356;28;20482;-78
2021/12/03 01:01:26;;;;;;;4.85;1.52;;;0.80;99.90;;;;;;5113891;28;20144;-77
2021/12/03 01:03:51;;;;;;;4.45;1.35;;;0.70;99.90;;;;;;5115058;28;20440;-77
2021/12/03 01:06:17;;;;;;;7.15;1.58;;;0.70;99.90;;;;;;5114008;28;20036;-77
2021/12/03 01:08:43;;;;;;;7.38;1.67;;;1.70;99.90;;;;;;5114855;27;20075;-77
2021/12/03 01:11:10;;;;;;;10.32;1.33;;;0.70;99.90;;;;;;5114586;28;20521;-77
2021/12/03 01:13:38;;;;;;;7.07;1.40;;;1.40;99.90;;;;;;5112951;28;20047;-77
2021/12/03 01:16:05;;;;;;;9.15;1.70;;;1.10;99.90;;;;;;5113632;28;20437;-77
2021/12/03 01:18:32;;;;;;;10.63;1.73;;;0.80;99.90;;;;;;5113002;28;20047;-77
2021/12/03 01:20:58;;;;;;;7.28;1.50;;;0.80;99.90;;;;;;5113500;28;20039;-77
2021/12/03 01:23:24;;;;;;;3.97;1.60;;;1.00;99.90;;;;;;5114280;28;20127;-77
2021/12/03 01:25:49;;;;;;;5.80;1.25;;;1.60;99.90;;;;;;5112497;28;20173;-77
2021/12/03 01:28:16;;;;;;;14.57;2.38;;;0.80;99.90;;;;;;5113101;28;20423;-77
2021/12/03 01:30:42;;;;;;;7.10;2.00;;;0.90;99.90;;;;;;5113414;28;20087;-77
2021/12/03 01:33:08;;;;;;;5.68;1.45;;;0.90;99.90;;;;;;5112072;28;20036;-77
2021/12/03 01:35:36;;;;;;;9.00;1.67;;;0.90;99.90;;;;;;5113651;28;20051;-77
2021/12/03 01:38:04;;;;;;;8.63;1.85;;;1.00;99.90;;;;;;5112871;28;20047;-77
2021/12/03 01:40:31;;;;;;;7.40;2.00;;;1.00;99.90;;;;;;5113066;28;20039;-77
2021/12/03 01:42:57;;;;;;;5.45;1.65;;;1.00;99.90;;;;;;5114245;28;20077;-77
2021/12/03 01:45:28;;;;;;;7.72;1.95;;;1.30;99.90;;;;;;5114013;28;20035;-77
2021/12/03 01:47:54;;;;;;;9.70;1.48;;;1.90;99.90;;;;;;5113158;28;20510;-77
2021/12/03 01:50:25;;;;;;;3.88;1.60;;;1.00;99.90;;;;;;5113810;28;20552;-77
2021/12/03 01:52:51;;;;;;;17.15;2.42;;;1.00;99.90;;;;;;5113851;28;20040;-77
2021/12/03 01:55:17;;;;;;;5.30;1.60;;;1.90;99.90;;;;;;5113028;28;20046;-77
2021/12/03 01:57:43;;;;;;;12.73;2.25;;;1.10;99.90;;;;;;5113678;28;20036;-77
2021/12/03 02:00:31;;;;;;;7.78;2.00;;;1.50;99.90;;;;;;5112778;28;20518;-77
2021/12/03 02:02:58;;;;;;;6.88;1.95;;;1.10;99.90;;;;;;5111829;28;20100;-77
2021/12/03 02:05:24;;;;;;;7.68;1.60;;;2.10;99.90;;;;;;5114045;28;20039;-77
2021/12/03 02:07:50;;;;;;;5.57;1.48;;;1.20;99.90;;;;;;5113993;28;20044;-77
2021/12/03 02:10:19;;;;;;;9.73;1.70;;;1.20;99.90;;;;;;5112742;28;20047;-77
2021/12/03 02:12:45;;;;;;;11.05;2.15;;;1.20;99.90;;;;;;5112652;28;20051;-77
2021/12/03 02:15:11;;;;;;;7.10;1.88;;;1.20;99.90;;;;;;5111909;28;20055;-77
2021/12/03 02:17:37;;;;;;;10.60;2.33;;;1.20;99.90;;;;;;5112539;28;20532;-77
2021/12/03 02:20:05;;;;;;;8.73;2.30;;;1.20;99.90;;;;;;5112511;28;20044;-77
2021/12/03 02:22:31;;;;;;;11.10;2.60;;;1.30;99.90;;;;;;5112663;28;20081;-77
2021/12/03 02:24:57;;;;;;;6.55;2.40;;;2.20;99.90;;;;;;5112347;28;20044;-77
2021/12/03 02:27:23;;;;;;;10.63;2.83;;;1.40;99.90;;;;;;5112353;28;20047;-77
2021/12/03 02:29:48;;;;;;;13.73;3.05;;;1.30;99.90;;;;;;5111375;28;20050;-77
2021/12/03 02:32:14;;;;;;;11.65;3.58;;;1.90;99.90;;;;;;5113963;28;20047;-77
2021/12/03 02:34:40;;;;;;;14.10;4.72;;;1.40;99.90;;;;;;5112330;28;20479;-77
2021/12/03 02:37:06;;;;;;;8.30;3.85;;;1.40;99.90;;;;;;5112696;28;20083;-77
2021/12/03 02:39:32;;;;;;;10.07;4.20;;;1.40;99.90;;;;;;5113334;28;20040;-77
2021/12/03 02:41:57;;;;;;;9.32;4.22;;;1.40;99.90;;;;;;5113152;28;20487;-76
2021/12/03 02:44:23;;;;;;;14.25;4.72;;;1.40;99.90;;;;;;5112700;28;20047;-76
2021/12/03 02:46:50;;;;;;;16.58;5.05;;;2.20;99.90;;;;;;5112203;28;20100;-76
2021/12/03 02:49:15;;;;;;;14.90;6.47;;;1.80;99.90;;;;;;5112193;28;20051;-76
2021/12/03 02:51:42;;;;;;;17.73;6.93;;;1.50;99.90;;;;;;5112785;28;20036;-76
2021/12/03 02:54:09;;;;;;;11.68;6.85;;;1.40;99.90;;;;;;5113142;28;20058;-76
2021/12/03 02:56:35;;;;;;;15.90;8.20;;;1.70;99.90;;;;;;5113493;28;20044;-76
2021/12/03 02:59:01;;;;;;;21.33;9.45;;;1.50;99.90;;;;;;5114302;28;20445;-76
2021/12/03 03:01:27;;;;;;;18.92;9.32;;;1.50;99.90;;;;;;5117097;28;20356;-76
2021/12/03 03:03:53;;;;;;;23.08;10.50;;;1.90;99.90;;;;;;5117366;28;20044;-76
2021/12/03 03:06:19;;;;;;;18.92;10.82;;;1.50;99.90;;;;;;5115031;28;20060;-77
2021/12/03 03:08:45;;;;;;;24.42;12.00;;;2.40;99.90;;;;;;5117022;28;20043;-76
2021/12/03 03:11:11;;;;;;;26.80;12.75;;;1.50;99.90;;;;;;5115489;28;20048;-76
2021/12/03 03:13:37;;;;;;;24.90;13.70;;;1.60;99.90;;;;;;5116506;28;20052;-76
2021/12/03 03:16:05;;;;;;;24.75;14.07;;;1.50;99.90;;;;;;5115643;28;20497;-76
2021/12/03 03:18:31;;;;;;;27.65;16.20;;;1.60;99.90;;;;;;5114921;28;20048;-76
2021/12/03 03:20:59;;;;;;;31.80;16.38;;;2.40;99.90;;;;;;5132767;27;20123;-76
2021/12/03 03:23:26;;;;;;;37.05;17.58;;;1.50;99.90;;;;;;5115462;28;20055;-76
2021/12/03 03:25:52;;;;;;;34.95;17.38;;;1.50;99.90;;;;;;5115511;28;20108;-76
2021/12/03 03:28:19;;;;;;;31.50;17.80;;;1.50;99.90;;;;;;5116796;28;20049;-76
2021/12/03 03:30:47;;;;;;;30.45;17.48;;;1.50;99.90;;;;;;5116516;28;20040;-76
2021/12/03 03:33:15;;;;;;;31.70;18.50;;;1.50;99.90;;;;;;5115697;28;20110;-76
2021/12/03 03:35:41;;;;;;;35.50;19.58;;;1.50;99.90;;;;;;5115569;28;20047;-76
2021/12/03 03:38:07;;;;;;;41.85;19.40;;;1.70;99.90;;;;;;5115662;28;20070;-77
2021/12/03 03:40:33;;;;;;;34.10;18.85;;;1.50;99.90;;;;;;5115637;28;20071;-77
2021/12/03 03:43:02;;;;;;;30.88;19.40;;;2.20;99.90;;;;;;5114904;28;20483;-77
2021/12/03 03:45:29;;;;;;;35.25;19.85;;;1.50;99.90;;;;;;5116550;28;20082;-77
2021/12/03 03:47:56;;;;;;;32.38;18.05;;;1.50;99.90;;;;;;5115538;28;20604;-77
2021/12/03 03:50:23;;;;;;;39.15;19.42;;;1.50;99.90;;;;;;5116394;28;20052;-76
2021/12/03 03:52:51;;;;;;;31.75;18.52;;;1.50;99.90;;;;;;5114792;28;20554;-77
2021/12/03 03:55:18;;;;;;;31.45;18.85;;;1.80;99.90;;;;;;5113560;28;20046;-76
2021/12/03 03:57:46;;;;;;;32.72;19.35;;;1.40;99.90;;;;;;5116320;28;20052;-77
2021/12/03 04:00:15;;;;;;;37.38;19.60;;;1.70;99.90;;;;;;5114879;28;20509;-77
2021/12/03 04:02:41;;;;;;;31.08;17.90;;;1.40;99.90;;;;;;5114071;28;20052;-77
2021/12/03 04:05:07;;;;;;;32.70;17.30;;;1.50;99.90;;;;;;5131984;27;20044;-77
2021/12/03 04:07:33;;;;;;;29.08;18.00;;;1.40;99.90;;;;;;5114550;28;20094;-77
2021/12/03 04:09:59;;;;;;;32.00;17.75;;;1.40;99.90;;;;;;5130946;27;20521;-76
2021/12/03 04:12:25;;;;;;;30.88;16.90;;;1.50;99.90;;;;;;5115993;28;20062;-77
2021/12/03 04:14:51;;;;;;;27.20;15.68;;;1.40;99.90;;;;;;5113868;28;20047;-77
2021/12/03 04:17:17;;;;;;;30.90;16.17;;;1.50;99.90;;;;;;5116084;28;20051;-76
2021/12/03 04:19:43;;;;;;;27.00;15.75;;;2.20;99.90;;;;;;5115880;28;20051;-77
2021/12/03 04:22:14;;;;;;;24.33;12.98;;;1.40;99.90;;;;;;5113644;28;20047;-77
2021/12/03 04:24:40;;;;;;;31.98;15.27;;;1.40;99.90;;;;;;5115815;28;20050;-77
2021/12/03 04:27:06;;;;;;;28.13;14.60;;;1.40;99.90;;;;;;5115915;28;20394;-76
2021/12/03 04:29:32;;;;;;;30.40;16.23;;;1.50;99.90;;;;;;5114613;28;20035;-77
2021/12/03 04:31:57;;;;;;;25.52;14.93;;;1.40;99.90;;;;;;5114253;28;20051;-77
2021/12/03 04:34:24;;;;;;;27.65;15.20;;;2.80;99.90;;;;;;5115265;28;20047;-77
2021/12/03 04:36:50;;;;;;;28.40;14.73;;;1.40;99.90;;;;;;5114625;28;20067;-77
2021/12/03 04:39:16;;;;;;;29.80;14.80;;;2.10;99.90;;;;;;5113691;28;20047;-77
2021/12/03 04:41:42;;;;;;;24.15;14.75;;;1.40;99.90;;;;;;5114058;28;20058;-77
2021/12/03 04:44:08;;;;;;;33.30;16.63;;;1.70;99.90;;;;;;5113250;28;20052;-77
2021/12/03 04:46:34;;;;;;;24.88;14.77;;;1.40;99.90;;;;;;5115185;28;20043;-77
2021/12/03 04:49:00;;;;;;;21.02;13.25;;;1.60;99.90;;;;;;5113701;28;20055;-77
2021/12/03 04:51:26;;;;;;;20.90;13.07;;;1.40;99.90;;;;;;5114249;28;20094;-77
2021/12/03 04:53:52;;;;;;;21.90;13.68;;;2.10;99.90;;;;;;5113752;28;20071;-77
2021/12/03 04:56:18;;;;;;;25.10;15.15;;;2.30;99.90;;;;;;5113335;28;20044;-77
2021/12/03 04:58:44;;;;;;;24.00;14.15;;;1.40;99.90;;;;;;5112781;28;20051;-77
2021/12/03 05:01:10;;;;;;;22.90;14.90;;;1.40;99.90;;;;;;5115151;28;20547;-77
2021/12/03 05:03:37;;;;;;;21.42;13.10;;;1.60;99.90;;;;;;5113752;28;20048;-77
2021/12/03 05:06:07;;;;;;;25.50;13.80;;;1.40;99.90;;;;;;5112679;28;20464;-77
2021/12/03 05:08:33;;;;;;;21.27;13.65;;;2.10;99.90;;;;;;5113462;28;20168;-77
2021/12/03 05:10:59;;;;;;;20.38;12.75;;;1.50;99.90;;;;;;5112095;28;20075;-77
2021/12/03 05:13:31;;;;;;;18.73;12.63;;;1.50;99.90;;;;;;5114807;28;20039;-77
2021/12/03 05:15:57;;;;;;;25.00;12.57;;;2.20;99.90;;;;;;5114769;28;20047;-77
2021/12/03 05:18:25;;;;;;;22.02;12.85;;;2.40;99.90;;;;;;5113621;28;20047;-77
2021/12/03 05:20:52;;;;;;;21.65;13.02;;;1.50;99.90;;;;;;5114345;28;20059;-77
2021/12/03 05:23:19;;;;;;;24.67;12.48;;;1.70;99.90;;;;;;5114310;28;20063;-77
2021/12/03 05:25:46;;;;;;;22.75;12.80;;;1.50;99.90;;;;;;5113449;28;20044;-77
2021/12/03 05:28:11;;;;;;;26.45;15.05;;;2.40;99.90;;;;;;5114390;28;20086;-77
2021/12/03 05:30:38;;;;;;;24.58;14.90;;;1.90;99.90;;;;;;5114266;28;20075;-77
2021/12/03 05:33:05;;;;;;;23.65;13.57;;;1.90;99.90;;;;;;5112465;28;20047;-77
2021/12/03 05:35:31;;;;;;;21.40;13.50;;;1.50;99.90;;;;;;5114280;28;20047;-77
2021/12/03 05:37:57;;;;;;;24.50;12.38;;;1.50;99.90;;;;;;5112965;28;20051;-76
2021/12/03 05:40:23;;;;;;;20.52;12.68;;;1.50;99.90;;;;;;5111919;28;20052;-77
2021/12/03 05:42:49;;;;;;;19.35;12.50;;;1.50;99.90;;;;;;5114208;28;20395;-76
2021/12/03 05:45:20;;;;;;;18.40;12.25;;;2.30;99.90;;;;;;5113276;28;20380;-76
2021/12/03 05:47:46;;;;;;;20.90;12.52;;;1.50;99.90;;;;;;5113292;28;20036;-76
2021/12/03 05:50:13;;;;;;;18.50;12.00;;;1.70;99.90;;;;;;5112690;28;20475;-76
2021/12/03 05:52:39;;;;;;;17.02;11.50;;;1.50;99.90;;;;;;5114027;28;20050;-76
2021/12/03 05:55:07;;;;;;;18.83;13.57;;;2.50;99.90;;;;;;5111967;28;20036;-77
2021/12/03 05:57:32;;;;;;;26.02;13.20;;;1.60;99.90;;;;;;5112809;28;20055;-77
2021/12/03 05:59:58;;;;;;;26.65;14.00;;;2.20;99.90;;;;;;5113909;28;20050;-76
2021/12/03 06:02:24;;;;;;;21.60;12.93;;;1.70;99.90;;;;;;5111853;28;20383;-76
2021/12/03 06:04:50;;;;;;;29.95;17.05;;;1.60;99.90;;;;;;5129782;27;20081;-76
2021/12/03 06:07:16;;;;;;;23.10;13.27;;;1.70;99.90;;;;;;5111961;28;20062;-76
2021/12/03 06:09:42;;;;;;;22.60;13.88;;;1.70;99.90;;;;;;5122824;28;20047;-76
2021/12/03 06:12:09;;;;;;;28.58;13.68;;;1.90;99.90;;;;;;5092504;28;20550;-76
2021/12/03 06:14:35;;;;;;;20.23;11.80;;;1.70;99.90;;;;;;5108252;28;20499;-76
2021/12/03 06:17:00;;;;;;;19.67;12.75;;;1.80;99.90;;;;;;5109087;28;20086;-76
2021/12/03 06:19:26;;;;;;;20.45;12.25;;;1.80;99.90;;;;;;5109920;28;20051;-76
2021/12/03 06:21:52;;;;;;;21.52;11.93;;;2.50;99.90;;;;;;5111644;28;20047;-76
2021/12/03 06:24:18;;;;;;;22.15;13.75;;;1.90;99.90;;;;;;5112516;28;20450;-76
2021/12/03 06:26:44;;;;;;;21.73;12.43;;;1.90;99.90;;;;;;5112644;28;20505;-76
2021/12/03 06:29:10;;;;;;;22.45;12.10;;;2.10;99.90;;;;;;5112737;28;20043;-76
2021/12/03 06:31:36;;;;;;;20.58;11.55;;;2.20;99.90;;;;;;5113911;28;20043;-76
2021/12/03 06:34:02;;;;;;;23.40;11.65;;;2.10;99.90;;;;;;5115659;28;20047;-76
2021/12/03 06:36:28;;;;;;;18.92;10.05;;;2.10;99.90;;;;;;5115823;28;20048;-76
2021/12/03 06:38:54;;;;;;;24.42;12.00;;;2.10;99.90;;;;;;5117581;28;20039;-76
2021/12/03 06:41:20;;;;;;;22.00;10.18;;;2.20;99.90;;;;;;5133004;27;20054;-76
2021/12/03 06:43:45;;;;;;;23.83;9.80;;;2.20;99.90;;;;;;5115529;28;20054;-76
2021/12/03 06:46:11;;;;;;;18.17;9.48;;;2.30;99.90;;;;;;5117683;28;20110;-76
2021/12/03 06:48:37;;;;;;;22.92;10.15;;;2.30;99.90;;;;;;5115939;28;20061;-76
2021/12/03 06:51:03;;;;;;;22.05;9.70;;;2.30;99.90;;;;;;5115564;28;20055;-76
2021/12/03 06:53:40;;;;;;;20.75;9.18;;;3.10;99.90;;;;;;5116148;28;20048;-76
2021/12/03 06:56:09;;;;;;;19.67;8.05;;;2.40;99.90;;;;;;5115946;28;20098;-78
2021/12/03 06:58:35;;;;;;;16.75;8.95;;;2.30;99.90;;;;;;5115245;28;20490;-76
2021/12/03 07:01:02;;;;;;;13.60;8.35;;;2.40;99.90;;;;;;5116096;28;20050;-76
2021/12/03 07:03:28;;;;;;;12.68;7.43;;;2.40;99.90;;;;;;5115293;28;20523;-76
2021/12/03 07:05:54;;;;;;;14.10;7.35;;;2.40;99.90;;;;;;5116041;28;20157;-76
2021/12/03 07:08:19;;;;;;;11.10;6.47;;;2.50;99.90;;;;;;5117121;28;20429;-76
2021/12/03 07:10:45;;;;;;;10.25;6.13;;;2.40;99.90;;;;;;5114694;28;20361;-76
2021/12/03 07:13:11;;;;;;;11.95;6.07;;;2.40;99.90;;;;;;5115694;28;20044;-76
2021/12/03 07:15:38;;;;;;;15.18;5.65;;;2.40;99.90;;;;;;5116963;28;20483;-75
2021/12/03 07:18:04;;;;;;;12.00;5.35;;;2.40;99.90;;;;;;5114858;28;20040;-76
2021/12/03 07:20:30;;;;;;;13.57;5.30;;;2.40;99.90;;;;;;5116881;27;20043;-76
2021/12/03 07:22:57;;;;;;;11.25;4.88;;;3.20;99.90;;;;;;5116597;27;20059;-76
2021/12/03 07:25:23;;;;;;;9.23;3.90;;;2.50;99.90;;;;;;5115666;28;20554;-75
2021/12/03 07:27:49;;;;;;;19.15;4.70;;;2.50;99.90;;;;;;5116907;28;20035;-75
2021/12/03 07:30:17;;;;;;;11.70;4.07;;;2.50;99.90;;;;;;5116799;28;20134;-75
2021/12/03 07:32:44;;;;;;;14.10;4.18;;;2.60;99.90;;;;;;5114663;28;20043;-76
2021/12/03 07:35:10;;;;;;;8.70;3.58;;;2.60;99.90;;;;;;5116756;28;20429;-76
2021/12/03 07:37:36;;;;;;;9.73;3.55;;;2.60;99.90;;;;;;5116617;28;20044;-76
2021/12/03 07:40:06;;;;;;;11.10;3.78;;;2.70;99.90;;;;;;5114323;28;20044;-76
2021/12/03 07:42:35;;;;;;;12.45;4.25;;;2.60;99.90;;;;;;5116356;28;20506;-76
2021/12/03 07:45:05;;;;;;;13.52;4.65;;;2.70;99.90;;;;;;5116023;28;20088;-76
2021/12/03 07:47:31;;;;;;;17.42;4.78;;;2.60;99.90;;;;;;5115754;28;20046;-76
2021/12/03 07:49:56;;;;;;;8.70;3.60;;;2.70;99.90;;;;;;5116377;28;20474;-76
2021/12/03 07:52:22;;;;;;;11.88;4.00;;;2.80;99.90;;;;;;5116064;28;20036;-76
2021/12/03 07:54:49;;;;;;;12.35;3.80;;;2.70;99.90;;;;;;5115282;28;20043;-75
2021/12/03 07:57:15;;;;;;;8.82;3.35;;;2.70;99.90;;;;;;5115939;28;20051;-76
2021/12/03 07:59:41;;;;;;;12.15;3.85;;;2.80;99.90;;;;;;5115650;28;20032;-76
2021/12/03 08:02:07;;;;;;;9.50;3.22;;;2.80;99.90;;;;;;5113041;28;20445;-75
2021/12/03 08:04:33;;;;;;;12.40;3.17;;;2.80;99.90;;;;;;5115299;28;20043;-75
2021/12/03 08:07:05;;;;;;;8.07;3.63;;;2.80;99.90;;;;;;5115050;28;20080;-75
2021/12/03 08:09:33;;;;;;;11.63;2.90;;;2.80;99.90;;;;;;5113895;28;20066;-75
2021/12/03 08:12:07;;;;;;;7.85;2.90;;;2.90;99.90;;;;;;5113833;28;20040;-76
2021/12/03 08:14:33;;;;;;;9.32;2.92;;;2.90;99.90;;;;;;5114763;28;20437;-75
2021/12/03 08:16:59;;;;;;;13.02;3.45;;;2.90;99.90;;;;;;5116080;28;20071;-75
2021/12/03 08:19:25;;;;;;;8.90;2.97;;;2.90;99.90;;;;;;5115477;28;20071;-75
2021/12/03 08:21:51;;;;;;;10.60;4.82;;;2.90;99.90;;;;;;5114672;28;20055;-76
2021/12/03 08:24:16;;;;;;;12.63;4.25;;;3.00;99.90;;;;;;5108060;28;20199;-76
2021/12/03 08:26:42;;;;;;;9.88;4.15;;;3.00;99.90;;;;;;5095330;28;20036;-75
2021/12/03 08:29:08;;;;;;;14.90;4.95;;;3.20;99.90;;;;;;5103934;27;20529;-74
2021/12/03 08:31:34;;;;;;;9.13;4.03;;;3.00;99.90;;;;;;5115368;28;20052;-75
2021/12/03 08:34:00;;;;;;;17.85;5.32;;;3.10;99.90;;;;;;5116976;27;20135;-75
2021/12/03 08:36:26;;;;;;;14.95;4.93;;;3.10;99.90;;;;;;5134574;27;20120;-75
2021/12/03 08:38:51;;;;;;;11.73;5.13;;;3.20;99.90;;;;;;5129555;27;20044;-75
2021/12/03 08:41:18;;;;;;;16.55;6.07;;;3.20;99.90;;;;;;5115197;28;20049;-75
2021/12/03 08:43:46;;;;;;;15.57;5.38;;;3.20;99.90;;;;;;5114223;28;20055;-75
2021/12/03 08:46:26;;;;;;;18.95;6.15;;;3.20;99.90;;;;;;5131186;27;20051;-75
2021/12/03 08:48:52;;;;;;;15.10;6.07;;;3.30;99.90;;;;;;5115015;28;20544;-75
2021/12/03 08:57:03;;;;;;;16.08;6.65;;;3.30;99.90;;;;;;5111414;28;20054;-75
2021/12/03 08:59:31;;;;;;;26.63;7.10;;;3.30;99.90;;;;;;5113373;28;20048;-76
2021/12/03 09:01:56;;;;;;;20.85;8.32;;;3.30;99.90;;;;;;5114584;28;20083;-75
2021/12/03 09:04:23;;;;;;;13.73;7.47;;;3.40;99.90;;;;;;5113977;28;20120;-75
2021/12/03 09:06:49;;;;;;;18.98;7.90;;;3.40;99.90;;;;;;5113621;28;20189;-76
2021/12/03 09:09:15;;;;;;;23.48;8.85;;;3.40;99.90;;;;;;5114652;28;20539;-76
2021/12/03 09:11:41;;;;;;;18.00;7.72;;;3.40;99.90;;;;;;5113800;28;20097;-75
2021/12/03 09:14:52;;;;;;;20.20;7.70;;;3.50;99.90;;;;;;5113228;28;20047;-75
2021/12/03 09:20:06;;;;;;;24.42;8.82;;;3.50;99.90;;;;;;5047053;28;20044;-75
2021/12/03 09:22:41;;;;;;;24.55;8.85;;;3.60;99.90;;;;;;5095014;28;20062;-75
2021/12/03 09:25:08;;;;;;;;;;;3.60;99.90;;;;;;5113030;28;20044;-75
2021/12/03 09:27:34;;;;;;;18.98;8.52;;;3.60;99.90;;;;;;5113155;28;19923;-76
2021/12/03 09:30:02;;;;;;;17.70;8.05;;;3.60;99.90;;;;;;5095788;28;20061;-75
2021/12/03 09:32:31;;;;;;;21.83;7.80;;;3.60;99.90;;;;;;5112245;28;20048;-75
2021/12/03 09:34:58;;;;;;;23.13;7.65;;;3.70;99.90;;;;;;5114420;28;20046;-75
2021/12/03 09:37:24;;;;;;;21.45;7.35;;;3.70;99.90;;;;;;5114433;28;20049;-75
2021/12/03 09:39:50;;;;;;;16.95;7.50;;;3.70;99.90;;;;;;5112191;28;20168;-75
2021/12/03 09:42:18;;;;;;;14.48;6.95;;;3.80;99.90;;;;;;5114321;28;20052;-75
2021/12/03 09:44:46;;;;;;;15.73;7.40;;;3.80;99.90;;;;;;5112794;28;20058;-75
2021/12/03 09:47:14;;;;;;;20.08;7.50;;;4.00;99.90;;;;;;5112213;28;20130;-75
2021/12/03 09:49:41;;;;;;;22.77;7.47;;;3.80;99.90;;;;;;5113942;28;20478;-75
2021/12/03 09:54:44;;;;;;;26.88;8.13;;;3.90;99.90;;;;;;5114209;28;20043;-75
2021/12/03 09:57:16;;;;;;;23.23;6.93;;;3.90;99.90;;;;;;5114037;28;20088;-75
2021/12/03 10:18:49;;;;;;;19.13;5.75;;;4.10;99.90;;;;;;5113847;28;20065;-75
2021/12/03 10:35:46;;;;;;;17.17;4.70;;;4.10;99.90;;;;;;5116138;28;20491;-75
2021/12/03 10:51:54;;;;;;;13.50;3.97;;;4.20;99.90;;;;;;5113255;28;20044;-75
2021/12/03 11:28:20;;;;;;;12.80;4.35;;;4.10;99.90;;;;;;5061061;28;20045;-75
2021/12/03 11:30:51;;;;;;;11.25;4.80;;;4.00;99.90;;;;;;5085529;28;20043;-75
2021/12/03 11:45:00;;;;;;;21.00;4.35;;;3.90;99.90;;;;;;5115534;27;20579;-74
2021/12/03 11:58:32;;;;;;;15.32;4.20;;;3.90;99.90;;;;;;5114546;28;20132;-75
2021/12/03 13:13:19;;;;;;;8.65;4.10;;;3.90;99.90;;;;;;5114312;28;20149;-76
2021/12/03 14:50:10;;;;;;;11.80;3.30;;;4.60;99.90;;;;;;5111295;28;20062;-76
2021/12/03 14:55:30;;;;;;;8.13;3.53;;;4.60;99.90;;;;;;5114897;28;20403;-75
2021/12/03 14:58:08;;;;;;;12.02;3.05;;;4.60;99.90;;;;;;5117083;28;20039;-76
2021/12/03 15:00:49;;;;;;;10.93;3.50;;;4.60;99.90;;;;;;5116172;28;20043;-76
2021/12/03 15:09:00;;;;;;;6.55;3.35;;;4.60;99.90;;;;;;5117012;28;20071;-76
2021/12/03 15:30:17;;;;;;;8.38;3.47;;;4.60;99.90;;;;;;5114997;28;20051;-76
2021/12/03 15:32:37;;;;;;;13.15;4.20;;;4.60;99.90;;;;;;5107308;28;20405;-76
2021/12/03 16:04:42;;;;;;;15.93;6.47;;;4.50;99.90;;;;;;5115951;28;20172;-76
2021/12/03 16:12:13;;;;;;;11.32;7.18;;;4.50;99.90;;;;;;5135577;27;20047;-75
2021/12/03 16:14:55;;;;;;;10.40;7.47;;;4.50;99.90;;;;;;5100138;28;20508;-76
2021/12/03 16:25:07;;;;;;;10.52;8.02;;;4.60;99.90;;;;;;5115805;28;20043;-75
2021/12/03 16:44:13;;;;;;;13.87;10.43;;;4.50;99.90;;;;;;5102773;28;20337;-74
2021/12/03 16:51:41;;;;;;;12.10;10.60;;;4.50;99.90;;;;;;5099138;28;20043;-74
2021/12/03 16:54:09;;;;;;;13.00;9.77;;;4.40;99.90;;;;;;5099884;28;20055;-74
2021/12/03 16:56:37;;;;;;;15.02;11.20;;;4.50;99.90;;;;;;5099930;28;20040;-75
2021/12/03 16:59:03;;;;;;;10.95;9.68;;;4.60;99.90;;;;;;5096644;28;20514;-74
2021/12/03 17:09:28;;;;;;;12.23;10.85;;;4.50;99.90;;;;;;5099249;28;20055;-74
2021/12/03 17:46:59;;;;;;;17.17;15.37;;;4.50;99.90;;;;;;5095726;28;20495;-74
2021/12/03 17:52:11;;;;;;;17.65;15.80;;;4.50;99.90;;;;;;5103485;28;20491;-74
2021/12/03 17:59:53;;;;;;;22.65;18.30;;;4.50;99.90;;;;;;5112288;28;20800;-74
2021/12/03 18:45:43;;;;;;;25.88;20.60;;;4.70;99.90;;;;;;5123280;27;20051;-74
2021/12/03 18:55:54;;;;;;;26.33;20.90;;;4.80;99.90;;;;;;5097358;28;20050;-74
2021/12/03 18:58:23;;;;;;;28.58;21.38;;;4.90;99.90;;;;;;5110734;27;20046;-74
2021/12/03 19:00:51;;;;;;;29.33;22.80;;;4.80;99.90;;;;;;5116053;28;20167;-74
2021/12/03 19:11:17;;;;;;;39.10;25.85;;;4.80;99.90;;;;;;5103170;28;20055;-74
2021/12/03 19:13:43;;;;;;;35.58;25.65;;;4.80;99.90;;;;;;5108757;28;20104;-75
2021/12/03 19:16:12;;;;;;;35.75;25.75;;;4.80;99.90;;;;;;5115617;28;20039;-75
2021/12/03 19:18:43;;;;;;;34.25;26.38;;;4.80;99.90;;;;;;5116237;28;20035;-74
2021/12/03 19:21:12;;;;;;;36.83;26.17;;;4.80;99.90;;;;;;5113082;28;20066;-75
2021/12/03 19:23:38;;;;;;;33.42;26.63;;;4.80;99.90;;;;;;5102208;28;20180;-75
2021/12/03 19:26:04;;;;;;;42.55;28.50;;;4.80;99.90;;;;;;5099687;27;20561;-75
2021/12/03 19:28:32;;;;;;;33.72;26.33;;;4.70;99.90;;;;;;5103982;28;20478;-74
2021/12/03 19:30:58;;;;;;;41.28;27.95;;;4.80;99.90;;;;;;5115452;28;20383;-75
2021/12/03 19:33:25;;;;;;;39.95;29.45;;;4.70;99.90;;;;;;5115922;28;20502;-74
2021/12/03 19:35:51;;;;;;;40.58;29.77;;;4.80;99.90;;;;;;5113948;28;20054;-74
2021/12/03 19:38:18;;;;;;;42.97;29.55;;;4.80;99.90;;;;;;5093253;28;20044;-74
2021/12/03 19:40:53;;;;;;;41.60;29.63;;;4.80;99.90;;;;;;5096185;28;20044;-74
2021/12/03 19:43:26;;;;;;;46.25;31.02;;;4.80;99.90;;;;;;5100354;27;20127;-75
2021/12/03 19:45:59;;;;;;;39.47;30.25;;;4.70;99.90;;;;;;5113779;28;20054;-75
2021/12/03 19:48:34;;;;;;;40.88;30.65;;;4.80;99.90;;;;;;5115586;27;20047;-75
2021/12/03 19:51:00;;;;;;;46.72;32.05;;;4.80;99.90;;;;;;5096248;28;20047;-74
2021/12/03 19:53:31;;;;;;;49.30;30.95;;;4.80;99.90;;;;;;5096813;28;20055;-74
2021/12/03 19:55:57;;;;;;;39.50;29.08;;;4.80;99.90;;;;;;5099542;28;20040;-73
2021/12/03 19:58:23;;;;;;;51.58;32.58;;;4.80;99.90;;;;;;5101302;28;20065;-75
2021/12/03 20:00:50;;;;;;;45.88;31.75;;;4.80;99.90;;;;;;5112928;28;20077;-74
2021/12/03 20:03:16;;;;;;;40.95;29.50;;;4.80;99.90;;;;;;5094901;28;20051;-74
2021/12/03 20:05:42;;;;;;;47.20;31.52;;;4.80;99.90;;;;;;5111628;28;20044;-75
2021/12/03 20:08:08;;;;;;;47.58;32.78;;;4.80;99.90;;;;;;5092860;28;20071;-74
2021/12/03 20:10:41;;;;;;;44.42;30.45;;;4.80;99.90;;;;;;5094486;28;20052;-75
2021/12/03 20:13:09;;;;;;;49.65;30.60;;;4.80;99.90;;;;;;5096948;28;20054;-74
2021/12/03 20:16:07;;;;;;;50.22;30.88;;;4.80;99.90;;;;;;5113791;28;20119;-74
2021/12/03 20:18:31;;;;;;;50.50;31.48;;;4.80;99.90;;;;;;5106687;28;20044;-74
2021/12/03 20:20:58;;;;;;;48.53;33.03;;;4.80;99.90;;;;;;5112249;28;20043;-75
2021/12/03 20:28:44;;;;;;;48.10;31.50;;;4.80;99.90;;;;;;5104804;28;20479;-74
2021/12/03 20:31:12;;;;;;;43.45;30.85;;;4.80;99.90;;;;;;5113401;28;20184;-74
2021/12/03 20:38:55;;;;;;;47.80;32.53;;;4.80;99.90;;;;;;5099682;28;20079;-74
2021/12/03 20:42:07;;;;;;;45.28;31.00;;;4.80;99.90;;;;;;5095259;28;20040;-74
2021/12/03 20:46:54;;;;;;;46.33;31.88;;;4.80;99.90;;;;;;5113766;28;20194;-75
2021/12/03 20:54:35;;;;;;;50.28;33.00;;;4.80;99.90;;;;;;5098858;28;20131;-74
2021/12/03 20:57:26;;;;;;;46.95;32.00;;;4.80;99.90;;;;;;5113549;28;20469;-75
2021/12/03 21:11:43;;;;;;;50.92;33.13;;;4.80;99.90;;;;;;5098855;28;20490;-74
2021/12/03 21:13:39;;;;;;;52.97;33.77;;;4.80;99.90;;;;;;5083359;28;20071;-74
2021/12/03 21:21:06;;;;;;;50.15;35.03;;;4.80;99.90;;;;;;5113821;28;20048;-74
2021/12/03 21:23:41;;;;;;;52.10;33.08;;;4.90;99.90;;;;;;5105666;28;20108;-74